createdAt,value
2017-08-08T00:00:35.361Z,0
2017-08-08T00:01:15.902Z,0
2017-08-08T00:01:56.439Z,0
2017-08-08T00:02:36.975Z,0
2017-08-08T00:03:17.513Z,0
2017-08-08T00:03:58.055Z,0
2017-08-08T00:04:38.592Z,0
2017-08-08T00:05:19.125Z,0
2017-08-08T00:05:59.666Z,0
2017-08-08T00:06:40.200Z,0
2017-08-08T00:07:20.742Z,0
2017-08-08T00:08:01.280Z,0
2017-08-08T00:08:41.822Z,0
2017-08-08T00:09:22.362Z,0
2017-08-08T00:10:02.893Z,0
2017-08-08T00:10:43.475Z,0
2017-08-08T00:11:24.013Z,0
2017-08-08T00:12:04.544Z,0
2017-08-08T00:12:45.082Z,0
2017-08-08T00:13:25.643Z,0
2017-08-08T00:14:06.180Z,0
2017-08-08T00:14:46.715Z,0
2017-08-08T00:15:27.253Z,0
2017-08-08T00:16:07.788Z,0
2017-08-08T00:16:48.332Z,0
2017-08-08T00:17:28.873Z,0
2017-08-08T00:18:09.406Z,0
2017-08-08T00:18:49.940Z,0
2017-08-08T00:19:30.477Z,0
2017-08-08T00:20:11.020Z,0
2017-08-08T00:20:51.558Z,0
2017-08-08T00:21:32.095Z,0
2017-08-08T00:22:12.645Z,0
2017-08-08T00:22:53.175Z,0
2017-08-08T00:23:33.705Z,0
2017-08-08T00:24:14.228Z,0
2017-08-08T00:24:54.775Z,0
2017-08-08T00:25:35.310Z,0
2017-08-08T00:26:15.842Z,0
2017-08-08T00:26:56.385Z,0
2017-08-08T00:27:36.913Z,0
2017-08-08T00:28:17.449Z,0
2017-08-08T00:28:57.989Z,0
2017-08-08T00:29:38.521Z,0
2017-08-08T00:30:19.063Z,0
2017-08-08T00:30:59.602Z,0
2017-08-08T00:31:40.152Z,0
2017-08-08T00:32:20.681Z,0
2017-08-08T00:33:01.224Z,0
2017-08-08T00:33:41.762Z,0
2017-08-08T00:34:22.301Z,0
2017-08-08T00:35:02.839Z,0
2017-08-08T00:35:43.383Z,0
2017-08-08T00:36:23.923Z,0
2017-08-08T00:37:04.458Z,0
2017-08-08T00:37:44.999Z,0
2017-08-08T00:38:25.553Z,0
2017-08-08T00:39:06.067Z,0
2017-08-08T00:39:46.603Z,0
2017-08-08T00:40:27.142Z,0
2017-08-08T00:41:07.682Z,0
2017-08-08T00:41:48.226Z,0
2017-08-08T00:42:28.756Z,0
2017-08-08T00:43:09.291Z,0
2017-08-08T00:43:49.818Z,0
2017-08-08T00:44:30.371Z,0
2017-08-08T00:45:10.897Z,0
2017-08-08T00:45:51.432Z,0
2017-08-08T00:46:31.985Z,0
2017-08-08T00:47:12.516Z,0
2017-08-08T00:47:53.063Z,0
2017-08-08T00:48:33.603Z,0
2017-08-08T00:49:14.148Z,0
2017-08-08T00:49:54.686Z,0
2017-08-08T00:50:35.222Z,0
2017-08-08T00:51:15.756Z,0
2017-08-08T00:51:56.296Z,0
2017-08-08T00:52:36.827Z,0
2017-08-08T00:53:17.375Z,0
2017-08-08T00:53:57.913Z,0
2017-08-08T00:54:38.452Z,0
2017-08-08T00:55:18.991Z,0
2017-08-08T00:55:59.524Z,0
2017-08-08T00:56:40.058Z,0
2017-08-08T00:57:20.597Z,0
2017-08-08T00:58:01.138Z,0
2017-08-08T00:58:41.677Z,0
2017-08-08T00:59:22.218Z,0
2017-08-08T01:00:02.757Z,0
2017-08-08T01:00:43.300Z,0
2017-08-08T01:01:23.835Z,0
2017-08-08T01:02:04.375Z,0
2017-08-08T01:02:44.916Z,0
2017-08-08T01:03:25.459Z,0
2017-08-08T01:04:05.994Z,0
2017-08-08T01:04:46.525Z,0
2017-08-08T01:05:27.072Z,0
2017-08-08T01:06:07.605Z,0
2017-08-08T01:06:48.144Z,0
2017-08-08T01:07:28.681Z,0
2017-08-08T01:08:09.219Z,0
2017-08-08T01:08:49.756Z,0
2017-08-08T01:09:30.298Z,0
2017-08-08T01:10:10.838Z,0
2017-08-08T01:10:51.371Z,0
2017-08-08T01:11:31.922Z,0
2017-08-08T01:12:12.446Z,0
2017-08-08T01:12:52.982Z,0
2017-08-08T01:13:33.520Z,0
2017-08-08T01:14:14.052Z,0
2017-08-08T01:14:54.591Z,0
2017-08-08T01:15:35.136Z,0
2017-08-08T01:16:15.672Z,0
2017-08-08T01:16:56.199Z,0
2017-08-08T01:17:36.738Z,0
2017-08-08T01:18:17.268Z,0
2017-08-08T01:18:57.806Z,0
2017-08-08T01:19:38.345Z,0
2017-08-08T01:20:18.883Z,0
2017-08-08T01:20:59.425Z,0
2017-08-08T01:21:39.962Z,0
2017-08-08T01:22:20.505Z,0
2017-08-08T01:23:01.045Z,0
2017-08-08T01:23:41.575Z,0
2017-08-08T01:24:22.112Z,0
2017-08-08T01:25:02.645Z,0
2017-08-08T01:25:43.180Z,0
2017-08-08T01:26:23.712Z,0
2017-08-08T01:27:04.244Z,0
2017-08-08T01:27:44.787Z,0
2017-08-08T01:28:25.324Z,0
2017-08-08T01:29:05.866Z,0
2017-08-08T01:29:46.404Z,0
2017-08-08T01:30:26.948Z,0
2017-08-08T01:31:07.478Z,0
2017-08-08T01:31:48.019Z,0
2017-08-08T01:32:28.562Z,0
2017-08-08T01:33:09.103Z,0
2017-08-08T01:33:49.641Z,0
2017-08-08T01:34:30.180Z,0
2017-08-08T01:35:10.713Z,0
2017-08-08T01:35:51.252Z,0
2017-08-08T01:36:31.795Z,0
2017-08-08T01:37:12.323Z,0
2017-08-08T01:37:52.861Z,0
2017-08-08T01:38:33.401Z,0
2017-08-08T01:39:13.939Z,0
2017-08-08T01:39:54.475Z,0
2017-08-08T01:40:35.010Z,0
2017-08-08T01:41:15.547Z,0
2017-08-08T01:41:56.096Z,0
2017-08-08T01:42:36.626Z,0
2017-08-08T01:43:17.157Z,0
2017-08-08T01:43:57.701Z,0
2017-08-08T01:44:38.236Z,0
2017-08-08T01:45:18.779Z,0
2017-08-08T01:45:59.317Z,0
2017-08-08T01:46:39.857Z,0
2017-08-08T01:47:20.399Z,0
2017-08-08T01:48:00.940Z,0
2017-08-08T01:48:41.467Z,0
2017-08-08T01:49:22.012Z,0
2017-08-08T01:50:02.561Z,0
2017-08-08T01:50:43.098Z,0
2017-08-08T01:51:23.634Z,0
2017-08-08T01:52:04.173Z,0
2017-08-08T01:52:44.714Z,0
2017-08-08T01:53:25.255Z,0
2017-08-08T01:54:05.794Z,0
2017-08-08T01:54:46.333Z,0
2017-08-08T01:55:26.872Z,0
2017-08-08T01:56:07.414Z,0
2017-08-08T01:56:47.952Z,0
2017-08-08T01:57:28.493Z,0
2017-08-08T01:58:09.030Z,0
2017-08-08T01:58:49.575Z,0
2017-08-08T01:59:30.111Z,0
2017-08-08T02:00:10.652Z,0
2017-08-08T02:00:51.194Z,0
2017-08-08T02:01:31.736Z,0
2017-08-08T02:02:12.270Z,0
2017-08-08T02:02:52.807Z,0
2017-08-08T02:03:33.348Z,0
2017-08-08T02:04:13.886Z,0
2017-08-08T02:04:54.428Z,0
2017-08-08T02:05:34.967Z,0
2017-08-08T02:06:15.501Z,0
2017-08-08T02:06:56.044Z,0
2017-08-08T02:07:36.577Z,0
2017-08-08T02:08:17.117Z,0
2017-08-08T02:08:57.652Z,0
2017-08-08T02:09:38.190Z,0
2017-08-08T02:10:18.731Z,0
2017-08-08T02:10:59.272Z,0
2017-08-08T02:11:39.812Z,0
2017-08-08T02:12:20.350Z,0
2017-08-08T02:13:00.933Z,0
2017-08-08T02:13:41.477Z,0
2017-08-08T02:14:22.024Z,0
2017-08-08T02:15:02.557Z,0
2017-08-08T02:15:43.101Z,0
2017-08-08T02:16:23.641Z,0
2017-08-08T02:17:04.175Z,0
2017-08-08T02:17:44.715Z,0
2017-08-08T02:18:25.250Z,0
2017-08-08T02:19:05.794Z,0
2017-08-08T02:19:46.333Z,0
2017-08-08T02:20:26.881Z,0
2017-08-08T02:21:07.420Z,0
2017-08-08T02:21:47.959Z,0
2017-08-08T02:22:28.490Z,0
2017-08-08T02:23:09.030Z,0
2017-08-08T02:23:49.566Z,0
2017-08-08T02:24:30.106Z,0
2017-08-08T02:25:10.648Z,0
2017-08-08T02:25:51.179Z,0
2017-08-08T02:26:31.710Z,0
2017-08-08T02:27:12.241Z,0
2017-08-08T02:27:52.783Z,0
2017-08-08T02:28:33.321Z,0
2017-08-08T02:29:13.856Z,0
2017-08-08T02:29:54.400Z,0
2017-08-08T02:30:34.925Z,0
2017-08-08T02:31:15.459Z,0
2017-08-08T02:31:55.996Z,0
2017-08-08T02:32:36.527Z,0
2017-08-08T02:33:17.064Z,0
2017-08-08T02:33:57.602Z,0
2017-08-08T02:34:38.160Z,0
2017-08-08T02:35:18.672Z,0
2017-08-08T02:35:59.210Z,0
2017-08-08T02:36:39.749Z,0
2017-08-08T02:37:20.285Z,0
2017-08-08T02:38:00.829Z,0
2017-08-08T02:38:41.368Z,0
2017-08-08T02:39:21.906Z,0
2017-08-08T02:40:02.448Z,0
2017-08-08T02:40:42.999Z,0
2017-08-08T02:41:23.549Z,0
2017-08-08T02:42:04.086Z,0
2017-08-08T02:42:44.628Z,0
2017-08-08T02:43:25.163Z,0
2017-08-08T02:44:05.702Z,0
2017-08-08T02:44:46.239Z,0
2017-08-08T02:45:26.783Z,0
2017-08-08T02:46:07.316Z,0
2017-08-08T02:46:47.858Z,0
2017-08-08T02:47:28.401Z,0
2017-08-08T02:48:08.939Z,0
2017-08-08T02:48:49.484Z,0
2017-08-08T02:49:30.020Z,0
2017-08-08T02:50:10.561Z,0
2017-08-08T02:50:51.088Z,0
2017-08-08T02:51:31.627Z,0
2017-08-08T02:52:12.229Z,0
2017-08-08T02:52:52.764Z,0
2017-08-08T02:53:33.304Z,0
2017-08-08T02:54:13.843Z,0
2017-08-08T02:54:54.382Z,0
2017-08-08T02:55:34.921Z,0
2017-08-08T02:56:15.462Z,0
2017-08-08T02:56:56.003Z,0
2017-08-08T02:57:36.534Z,0
2017-08-08T02:58:17.070Z,0
2017-08-08T02:58:57.607Z,0
2017-08-08T02:59:38.149Z,0
2017-08-08T03:00:18.689Z,0
2017-08-08T03:00:59.229Z,0
2017-08-08T03:01:39.768Z,0
2017-08-08T03:02:20.304Z,0
2017-08-08T03:03:00.840Z,0
2017-08-08T03:03:41.373Z,0
2017-08-08T03:04:21.906Z,0
2017-08-08T03:05:02.446Z,0
2017-08-08T03:05:42.983Z,0
2017-08-08T03:06:23.524Z,0
2017-08-08T03:07:04.045Z,0
2017-08-08T03:07:44.571Z,0
2017-08-08T03:08:25.113Z,0
2017-08-08T03:09:05.649Z,0
2017-08-08T03:09:46.188Z,0
2017-08-08T03:10:26.727Z,0
2017-08-08T03:11:07.266Z,0
2017-08-08T03:11:47.807Z,0
2017-08-08T03:12:28.344Z,0
2017-08-08T03:13:08.884Z,0
2017-08-08T03:13:49.422Z,0
2017-08-08T03:14:29.964Z,0
2017-08-08T03:15:10.486Z,0
2017-08-08T03:15:51.091Z,0
2017-08-08T03:16:31.646Z,0
2017-08-08T03:17:12.161Z,0
2017-08-08T03:17:52.704Z,0
2017-08-08T03:18:33.244Z,0
2017-08-08T03:19:13.786Z,0
2017-08-08T03:19:54.320Z,0
2017-08-08T03:20:34.859Z,0
2017-08-08T03:21:15.401Z,0
2017-08-08T03:21:55.934Z,0
2017-08-08T03:22:36.472Z,0
2017-08-08T03:23:17.008Z,0
2017-08-08T03:23:57.552Z,0
2017-08-08T03:24:38.093Z,0
2017-08-08T03:25:18.633Z,0
2017-08-08T03:25:59.174Z,0
2017-08-08T03:26:39.711Z,0
2017-08-08T03:27:20.249Z,0
2017-08-08T03:28:00.777Z,0
2017-08-08T03:28:41.315Z,0
2017-08-08T03:29:21.856Z,0
2017-08-08T03:30:02.394Z,0
2017-08-08T03:30:42.933Z,0
2017-08-08T03:31:23.464Z,0
2017-08-08T03:32:04.078Z,0
2017-08-08T03:32:44.635Z,0
2017-08-08T03:33:25.183Z,0
2017-08-08T03:34:05.757Z,0
2017-08-08T03:34:46.298Z,0
2017-08-08T03:35:26.828Z,0
2017-08-08T03:36:07.364Z,0
2017-08-08T03:36:47.904Z,0
2017-08-08T03:37:28.444Z,0
2017-08-08T03:38:08.983Z,0
2017-08-08T03:38:49.519Z,0
2017-08-08T03:39:30.056Z,0
2017-08-08T03:40:10.588Z,0
2017-08-08T03:40:51.129Z,0
2017-08-08T03:41:31.666Z,0
2017-08-08T03:42:12.210Z,0
2017-08-08T03:42:52.744Z,0
2017-08-08T03:43:33.278Z,0
2017-08-08T03:44:13.818Z,0
2017-08-08T03:44:54.356Z,0
2017-08-08T03:45:34.894Z,0
2017-08-08T03:46:15.433Z,0
2017-08-08T03:46:55.972Z,0
2017-08-08T03:47:36.514Z,0
2017-08-08T03:48:17.046Z,0
2017-08-08T03:48:57.574Z,0
2017-08-08T03:49:38.108Z,0
2017-08-08T03:50:18.648Z,0
2017-08-08T03:50:59.187Z,0
2017-08-08T03:51:39.731Z,0
2017-08-08T03:52:20.268Z,0
2017-08-08T03:53:00.818Z,0
2017-08-08T03:53:41.356Z,0
2017-08-08T03:54:21.897Z,0
2017-08-08T03:55:02.439Z,0
2017-08-08T03:55:42.979Z,0
2017-08-08T03:56:23.514Z,0
2017-08-08T03:57:04.047Z,0
2017-08-08T03:57:44.588Z,0
2017-08-08T03:58:25.137Z,0
2017-08-08T03:59:05.676Z,0
2017-08-08T03:59:46.226Z,0
2017-08-08T04:00:26.740Z,0
2017-08-08T04:01:07.273Z,0
2017-08-08T04:01:47.810Z,0
2017-08-08T04:02:28.349Z,0
2017-08-08T04:03:08.891Z,0
2017-08-08T04:03:49.429Z,0
2017-08-08T04:04:29.965Z,0
2017-08-08T04:05:10.502Z,0
2017-08-08T04:05:51.035Z,0
2017-08-08T04:06:31.564Z,0
2017-08-08T04:07:12.090Z,0
2017-08-08T04:07:52.631Z,0
2017-08-08T04:08:33.166Z,0
2017-08-08T04:09:13.704Z,0
2017-08-08T04:09:54.239Z,0
2017-08-08T04:10:34.772Z,0
2017-08-08T04:11:15.313Z,0
2017-08-08T04:11:55.884Z,0
2017-08-08T04:12:36.424Z,0
2017-08-08T04:13:16.961Z,5
2017-08-08T04:13:57.497Z,5
2017-08-08T04:14:38.038Z,5
2017-08-08T04:15:18.579Z,5
2017-08-08T04:15:59.117Z,5
2017-08-08T04:16:39.664Z,5
2017-08-08T04:17:20.189Z,5
2017-08-08T04:18:00.728Z,5
2017-08-08T04:18:41.262Z,5
2017-08-08T04:19:21.802Z,5
2017-08-08T04:20:02.343Z,5
2017-08-08T04:20:42.879Z,5
2017-08-08T04:21:23.410Z,5
2017-08-08T04:22:03.944Z,5
2017-08-08T04:22:44.478Z,5
2017-08-08T04:23:25.017Z,5
2017-08-08T04:24:05.549Z,10
2017-08-08T04:24:46.097Z,10
2017-08-08T04:25:26.624Z,10
2017-08-08T04:26:07.162Z,10
2017-08-08T04:26:47.704Z,10
2017-08-08T04:27:28.244Z,10
2017-08-08T04:28:08.790Z,10
2017-08-08T04:28:49.322Z,10
2017-08-08T04:29:29.910Z,10
2017-08-08T04:30:10.403Z,15
2017-08-08T04:30:50.936Z,15
2017-08-08T04:31:31.475Z,15
2017-08-08T04:32:12.008Z,15
2017-08-08T04:32:52.545Z,15
2017-08-08T04:33:33.090Z,15
2017-08-08T04:34:13.625Z,15
2017-08-08T04:34:54.155Z,15
2017-08-08T04:35:34.693Z,15
2017-08-08T04:36:15.228Z,15
2017-08-08T04:36:55.762Z,15
2017-08-08T04:37:36.299Z,15
2017-08-08T04:38:16.841Z,15
2017-08-08T04:38:57.370Z,20
2017-08-08T04:39:37.911Z,20
2017-08-08T04:40:18.447Z,20
2017-08-08T04:40:58.981Z,20
2017-08-08T04:41:39.517Z,20
2017-08-08T04:42:20.054Z,20
2017-08-08T04:43:00.594Z,25
2017-08-08T04:43:41.133Z,25
2017-08-08T04:44:21.678Z,25
2017-08-08T04:45:02.226Z,25
2017-08-08T04:45:42.769Z,25
2017-08-08T04:46:23.308Z,25
2017-08-08T04:47:03.850Z,25
2017-08-08T04:47:44.438Z,25
2017-08-08T04:48:24.970Z,25
2017-08-08T04:49:05.520Z,25
2017-08-08T04:49:46.048Z,30
2017-08-08T04:50:26.587Z,30
2017-08-08T04:51:07.126Z,30
2017-08-08T04:51:47.666Z,30
2017-08-08T04:52:28.208Z,30
2017-08-08T04:53:08.744Z,30
2017-08-08T04:53:49.285Z,30
2017-08-08T04:54:29.835Z,30
2017-08-08T04:55:10.355Z,30
2017-08-08T04:55:50.885Z,30
2017-08-08T04:56:31.415Z,30
2017-08-08T04:57:11.945Z,35
2017-08-08T04:57:52.480Z,35
2017-08-08T04:58:33.027Z,35
2017-08-08T04:59:13.563Z,35
2017-08-08T04:59:54.097Z,40
2017-08-08T05:00:34.634Z,40
2017-08-08T05:01:15.173Z,40
2017-08-08T05:01:55.713Z,45
2017-08-08T05:02:36.248Z,45
2017-08-08T05:03:16.790Z,50
2017-08-08T05:03:57.331Z,50
2017-08-08T05:04:37.866Z,45
2017-08-08T05:05:18.404Z,45
2017-08-08T05:05:58.939Z,40
2017-08-08T05:06:39.471Z,40
2017-08-08T05:07:20.012Z,40
2017-08-08T05:08:00.555Z,40
2017-08-08T05:08:41.099Z,40
2017-08-08T05:11:10.593Z,45
2017-08-08T05:11:51.127Z,45
2017-08-08T05:12:31.649Z,45
2017-08-08T05:13:12.185Z,45
2017-08-08T05:13:52.721Z,50
2017-08-08T05:14:33.262Z,50
2017-08-08T05:15:13.804Z,50
2017-08-08T05:15:54.347Z,50
2017-08-08T05:16:34.882Z,55
2017-08-08T05:17:15.417Z,55
2017-08-08T05:17:55.948Z,55
2017-08-08T05:18:36.485Z,60
2017-08-08T05:19:17.020Z,60
2017-08-08T05:19:57.554Z,60
2017-08-08T05:20:38.099Z,65
2017-08-08T05:21:18.635Z,65
2017-08-08T05:21:59.170Z,70
2017-08-08T05:22:39.708Z,75
2017-08-08T05:23:20.244Z,80
2017-08-08T05:24:00.784Z,85
2017-08-08T05:24:41.322Z,90
2017-08-08T05:25:21.857Z,95
2017-08-08T05:26:02.389Z,100
2017-08-08T05:26:42.925Z,100
2017-08-08T05:27:23.461Z,105
2017-08-08T05:28:03.998Z,105
2017-08-08T05:28:44.545Z,110
2017-08-08T05:29:25.069Z,115
2017-08-08T05:30:05.661Z,120
2017-08-08T05:30:46.132Z,125
2017-08-08T05:31:26.668Z,125
2017-08-08T05:32:07.195Z,125
2017-08-08T05:32:47.725Z,120
2017-08-08T05:33:28.253Z,120
2017-08-08T05:34:08.789Z,120
2017-08-08T05:34:49.324Z,125
2017-08-08T05:35:29.859Z,130
2017-08-08T05:36:10.396Z,135
2017-08-08T05:36:50.922Z,140
2017-08-08T05:37:31.464Z,150
2017-08-08T05:38:11.995Z,150
2017-08-08T05:38:52.530Z,155
2017-08-08T05:39:33.066Z,150
2017-08-08T05:40:13.604Z,150
2017-08-08T05:40:54.135Z,145
2017-08-08T05:41:34.669Z,140
2017-08-08T05:42:15.210Z,135
2017-08-08T05:42:55.748Z,130
2017-08-08T05:43:36.287Z,130
2017-08-08T05:44:16.823Z,125
2017-08-08T05:44:57.362Z,125
2017-08-08T05:45:37.905Z,125
2017-08-08T05:46:18.453Z,125
2017-08-08T05:46:58.988Z,125
2017-08-08T05:47:39.519Z,125
2017-08-08T05:48:20.049Z,125
2017-08-08T05:49:00.581Z,125
2017-08-08T05:49:41.116Z,125
2017-08-08T05:50:21.657Z,125
2017-08-08T05:51:02.189Z,120
2017-08-08T05:51:42.734Z,115
2017-08-08T05:52:23.274Z,110
2017-08-08T05:53:03.805Z,110
2017-08-08T05:53:44.340Z,110
2017-08-08T05:54:24.883Z,110
2017-08-08T05:55:05.422Z,105
2017-08-08T05:55:45.960Z,105
2017-08-08T05:56:26.502Z,105
2017-08-08T05:57:07.046Z,105
2017-08-08T05:57:47.564Z,105
2017-08-08T05:58:28.093Z,105
2017-08-08T05:59:08.630Z,105
2017-08-08T05:59:49.165Z,105
2017-08-08T06:00:29.698Z,110
2017-08-08T06:01:10.235Z,110
2017-08-08T06:01:50.767Z,110
2017-08-08T06:02:31.302Z,105
2017-08-08T06:03:11.839Z,105
2017-08-08T06:03:52.375Z,110
2017-08-08T06:04:32.919Z,110
2017-08-08T06:05:13.458Z,115
2017-08-08T06:05:53.999Z,120
2017-08-08T06:06:34.550Z,125
2017-08-08T06:07:15.089Z,125
2017-08-08T06:07:55.624Z,130
2017-08-08T06:08:36.270Z,135
2017-08-08T06:09:16.798Z,140
2017-08-08T06:09:57.336Z,140
2017-08-08T06:10:37.876Z,145
2017-08-08T06:11:18.416Z,145
2017-08-08T06:11:58.951Z,145
2017-08-08T06:12:39.552Z,145
2017-08-08T06:13:20.544Z,145
2017-08-08T06:14:01.096Z,145
2017-08-08T06:14:41.629Z,145
2017-08-08T06:15:22.165Z,145
2017-08-08T06:16:02.705Z,145
2017-08-08T06:16:43.234Z,145
2017-08-08T06:17:23.771Z,145
2017-08-08T06:18:04.301Z,145
2017-08-08T06:18:44.831Z,145
2017-08-08T06:19:25.370Z,145
2017-08-08T06:20:05.906Z,145
2017-08-08T06:20:46.450Z,145
2017-08-08T06:21:26.986Z,145
2017-08-08T06:22:07.522Z,145
2017-08-08T06:22:48.060Z,145
2017-08-08T06:23:28.598Z,145
2017-08-08T06:24:09.133Z,150
2017-08-08T06:24:49.673Z,150
2017-08-08T06:25:30.212Z,150
2017-08-08T06:26:10.753Z,150
2017-08-08T06:26:51.291Z,155
2017-08-08T06:27:31.828Z,155
2017-08-08T06:28:12.374Z,160
2017-08-08T06:28:52.907Z,160
2017-08-08T06:29:33.443Z,165
2017-08-08T06:30:13.972Z,165
2017-08-08T06:30:54.510Z,165
2017-08-08T06:31:35.046Z,170
2017-08-08T06:32:15.580Z,170
2017-08-08T06:32:56.127Z,175
2017-08-08T06:33:36.675Z,175
2017-08-08T06:34:17.211Z,175
2017-08-08T06:34:57.755Z,175
2017-08-08T06:35:38.295Z,175
2017-08-08T06:36:18.832Z,175
2017-08-08T06:36:59.387Z,175
2017-08-08T06:37:39.904Z,175
2017-08-08T06:38:20.468Z,175
2017-08-08T06:39:00.993Z,175
2017-08-08T06:39:41.534Z,175
2017-08-08T06:40:22.071Z,175
2017-08-08T06:41:02.614Z,175
2017-08-08T06:41:43.150Z,180
2017-08-08T06:42:23.692Z,180
2017-08-08T06:43:04.230Z,180
2017-08-08T06:43:44.770Z,180
2017-08-08T06:44:25.307Z,180
2017-08-08T06:45:05.849Z,175
2017-08-08T06:45:46.386Z,175
2017-08-08T06:46:26.924Z,170
2017-08-08T06:47:07.463Z,170
2017-08-08T06:47:47.998Z,170
2017-08-08T06:48:28.531Z,175
2017-08-08T06:49:09.074Z,175
2017-08-08T06:49:49.611Z,170
2017-08-08T06:50:30.152Z,170
2017-08-08T06:51:10.694Z,170
2017-08-08T06:51:51.232Z,165
2017-08-08T06:52:31.770Z,165
2017-08-08T06:53:12.307Z,160
2017-08-08T06:53:52.842Z,160
2017-08-08T06:54:33.375Z,155
2017-08-08T06:55:13.913Z,155
2017-08-08T06:55:54.447Z,150
2017-08-08T06:56:34.987Z,150
2017-08-08T06:57:15.520Z,145
2017-08-08T06:57:56.055Z,145
2017-08-08T06:58:36.590Z,140
2017-08-08T06:59:17.133Z,135
2017-08-08T06:59:57.672Z,130
2017-08-08T07:00:38.205Z,130
2017-08-08T07:01:18.808Z,130
2017-08-08T07:01:59.349Z,135
2017-08-08T07:02:39.890Z,135
2017-08-08T07:03:20.428Z,135
2017-08-08T07:04:00.976Z,140
2017-08-08T07:04:41.517Z,140
2017-08-08T07:05:22.060Z,135
2017-08-08T07:06:02.595Z,135
2017-08-08T07:06:43.136Z,130
2017-08-08T07:07:23.678Z,125
2017-08-08T07:08:04.214Z,125
2017-08-08T07:08:44.738Z,120
2017-08-08T07:09:25.280Z,115
2017-08-08T07:10:05.825Z,115
2017-08-08T07:10:46.360Z,120
2017-08-08T07:11:26.891Z,110
2017-08-08T07:12:07.429Z,110
2017-08-08T07:12:47.954Z,105
2017-08-08T07:13:28.497Z,100
2017-08-08T07:14:09.035Z,100
2017-08-08T07:14:49.578Z,100
2017-08-08T07:15:30.116Z,100
2017-08-08T07:16:10.645Z,100
2017-08-08T07:16:51.175Z,100
2017-08-08T07:17:31.713Z,95
2017-08-08T07:18:12.232Z,95
2017-08-08T07:18:52.768Z,100
2017-08-08T07:19:33.301Z,100
2017-08-08T07:20:13.833Z,105
2017-08-08T07:20:54.376Z,110
2017-08-08T07:21:34.906Z,110
2017-08-08T07:22:15.450Z,115
2017-08-08T07:22:55.994Z,125
2017-08-08T07:23:36.525Z,130
2017-08-08T07:24:17.059Z,135
2017-08-08T07:24:57.586Z,140
2017-08-08T07:25:38.120Z,145
2017-08-08T07:26:18.659Z,145
2017-08-08T07:26:59.199Z,150
2017-08-08T07:27:39.747Z,150
2017-08-08T07:28:20.296Z,150
2017-08-08T07:29:00.838Z,150
2017-08-08T07:29:41.381Z,145
2017-08-08T07:30:21.919Z,145
2017-08-08T07:31:02.457Z,145
2017-08-08T07:31:42.991Z,150
2017-08-08T07:32:23.527Z,150
2017-08-08T07:33:04.065Z,150
2017-08-08T07:33:44.594Z,155
2017-08-08T07:34:25.131Z,155
2017-08-08T07:35:05.659Z,160
2017-08-08T07:35:46.221Z,160
2017-08-08T07:36:26.730Z,160
2017-08-08T07:37:07.266Z,165
2017-08-08T07:37:47.803Z,165
2017-08-08T07:38:28.336Z,165
2017-08-08T07:39:08.877Z,170
2017-08-08T07:39:49.416Z,170
2017-08-08T07:40:29.953Z,170
2017-08-08T07:41:10.493Z,170
2017-08-08T07:41:51.030Z,170
2017-08-08T07:42:31.571Z,170
2017-08-08T07:43:12.111Z,165
2017-08-08T07:43:52.642Z,165
2017-08-08T07:44:33.188Z,160
2017-08-08T07:45:13.730Z,160
2017-08-08T07:45:54.270Z,160
2017-08-08T07:46:34.805Z,160
2017-08-08T07:47:15.340Z,160
2017-08-08T07:47:55.915Z,160
2017-08-08T07:48:36.451Z,160
2017-08-08T07:49:16.993Z,165
2017-08-08T07:49:57.531Z,165
2017-08-08T07:50:38.067Z,165
2017-08-08T07:51:18.608Z,170
2017-08-08T07:51:59.149Z,160
2017-08-08T07:52:39.724Z,155
2017-08-08T07:53:20.268Z,155
2017-08-08T07:54:00.801Z,150
2017-08-08T07:54:41.346Z,150
2017-08-08T07:55:21.870Z,150
2017-08-08T07:56:02.410Z,150
2017-08-08T07:56:42.950Z,145
2017-08-08T07:57:23.488Z,150
2017-08-08T07:58:04.024Z,155
2017-08-08T07:58:44.561Z,155
2017-08-08T07:59:25.106Z,160
2017-08-08T08:00:05.625Z,160
2017-08-08T08:00:46.161Z,165
2017-08-08T08:01:26.695Z,170
2017-08-08T08:02:07.242Z,170
2017-08-08T08:02:47.774Z,175
2017-08-08T08:03:28.322Z,175
2017-08-08T08:04:08.867Z,180
2017-08-08T08:04:49.401Z,180
2017-08-08T08:05:29.941Z,180
2017-08-08T08:06:10.479Z,180
2017-08-08T08:06:51.017Z,180
2017-08-08T08:07:31.554Z,180
2017-08-08T08:08:12.098Z,180
2017-08-08T08:08:52.637Z,180
2017-08-08T08:09:33.168Z,185
2017-08-08T08:10:13.705Z,185
2017-08-08T08:10:54.253Z,185
2017-08-08T08:11:34.796Z,190
2017-08-08T08:12:15.332Z,190
2017-08-08T08:12:55.874Z,195
2017-08-08T08:13:36.412Z,190
2017-08-08T08:14:16.959Z,195
2017-08-08T08:14:57.504Z,195
2017-08-08T08:15:38.043Z,195
2017-08-08T08:16:18.571Z,195
2017-08-08T08:16:59.111Z,200
2017-08-08T08:17:39.654Z,195
2017-08-08T08:18:20.191Z,195
2017-08-08T08:19:00.730Z,200
2017-08-08T08:19:41.271Z,200
2017-08-08T08:20:21.808Z,200
2017-08-08T08:21:02.347Z,200
2017-08-08T08:21:42.893Z,195
2017-08-08T08:22:23.431Z,190
2017-08-08T08:23:03.977Z,190
2017-08-08T08:23:44.509Z,185
2017-08-08T08:24:25.047Z,180
2017-08-08T08:25:05.586Z,180
2017-08-08T08:25:46.156Z,180
2017-08-08T08:26:26.689Z,180
2017-08-08T08:27:07.229Z,185
2017-08-08T08:27:47.767Z,190
2017-08-08T08:28:28.304Z,190
2017-08-08T08:29:08.839Z,190
2017-08-08T08:29:49.385Z,185
2017-08-08T08:30:29.918Z,180
2017-08-08T08:31:10.454Z,175
2017-08-08T08:31:50.993Z,170
2017-08-08T08:32:31.571Z,170
2017-08-08T08:33:12.108Z,175
2017-08-08T08:33:52.650Z,180
2017-08-08T08:34:33.188Z,180
2017-08-08T08:35:13.727Z,180
2017-08-08T08:35:54.276Z,185
2017-08-08T08:36:34.813Z,185
2017-08-08T08:37:15.357Z,185
2017-08-08T08:37:55.886Z,185
2017-08-08T08:38:36.429Z,195
2017-08-08T08:39:16.975Z,200
2017-08-08T08:39:57.514Z,200
2017-08-08T08:40:38.053Z,205
2017-08-08T08:41:18.597Z,200
2017-08-08T08:41:59.134Z,200
2017-08-08T08:42:39.684Z,200
2017-08-08T08:43:20.260Z,200
2017-08-08T08:44:00.800Z,200
2017-08-08T08:44:41.339Z,200
2017-08-08T08:45:21.885Z,200
2017-08-08T08:46:02.423Z,195
2017-08-08T08:46:42.970Z,195
2017-08-08T08:47:23.541Z,190
2017-08-08T08:48:04.056Z,185
2017-08-08T08:48:44.605Z,180
2017-08-08T08:49:25.148Z,185
2017-08-08T08:50:05.682Z,185
2017-08-08T08:50:46.212Z,190
2017-08-08T08:51:26.752Z,195
2017-08-08T08:52:07.382Z,195
2017-08-08T08:52:47.970Z,195
2017-08-08T08:53:28.510Z,195
2017-08-08T08:54:09.044Z,195
2017-08-08T08:54:49.574Z,200
2017-08-08T08:55:30.132Z,195
2017-08-08T08:56:10.656Z,195
2017-08-08T08:56:51.199Z,195
2017-08-08T08:57:31.736Z,190
2017-08-08T08:58:12.271Z,185
2017-08-08T08:58:52.797Z,190
2017-08-08T08:59:33.339Z,185
2017-08-08T09:00:13.889Z,190
2017-08-08T09:00:54.427Z,190
2017-08-08T09:01:34.972Z,190
2017-08-08T09:02:15.505Z,185
2017-08-08T09:02:56.038Z,175
2017-08-08T09:03:36.572Z,170
2017-08-08T09:04:17.112Z,165
2017-08-08T09:04:57.661Z,165
2017-08-08T09:05:38.207Z,170
2017-08-08T09:06:18.747Z,170
2017-08-08T09:06:59.295Z,175
2017-08-08T09:07:39.836Z,175
2017-08-08T09:08:20.384Z,175
2017-08-08T09:09:00.908Z,175
2017-08-08T09:09:41.443Z,170
2017-08-08T09:10:21.975Z,170
2017-08-08T09:11:02.506Z,170
2017-08-08T09:11:43.049Z,170
2017-08-08T09:12:23.649Z,165
2017-08-08T09:13:04.196Z,165
2017-08-08T09:13:44.738Z,150
2017-08-08T09:14:25.276Z,155
2017-08-08T09:15:05.820Z,150
2017-08-08T09:15:46.355Z,150
2017-08-08T09:16:26.900Z,145
2017-08-08T09:17:07.439Z,140
2017-08-08T09:17:47.985Z,140
2017-08-08T09:18:28.525Z,135
2017-08-08T09:19:09.056Z,135
2017-08-08T09:19:49.593Z,135
2017-08-08T09:20:30.135Z,135
2017-08-08T09:21:10.675Z,135
2017-08-08T09:21:51.212Z,130
2017-08-08T09:22:31.757Z,125
2017-08-08T09:23:12.297Z,125
2017-08-08T09:23:52.845Z,120
2017-08-08T09:24:33.383Z,125
2017-08-08T09:25:13.922Z,120
2017-08-08T09:25:54.461Z,120
2017-08-08T09:26:35.000Z,115
2017-08-08T09:27:15.542Z,115
2017-08-08T09:27:56.114Z,110
2017-08-08T09:28:36.655Z,110
2017-08-08T09:29:17.192Z,110
2017-08-08T09:29:57.717Z,105
2017-08-08T09:30:38.308Z,110
2017-08-08T09:31:18.849Z,110
2017-08-08T09:31:59.390Z,110
2017-08-08T09:32:39.929Z,105
2017-08-08T09:33:20.474Z,105
2017-08-08T09:34:01.016Z,105
2017-08-08T09:34:41.556Z,110
2017-08-08T09:35:22.094Z,115
2017-08-08T09:36:02.632Z,120
2017-08-08T09:36:43.189Z,120
2017-08-08T09:37:23.695Z,125
2017-08-08T09:38:04.242Z,125
2017-08-08T09:38:44.779Z,125
2017-08-08T09:39:25.323Z,125
2017-08-08T09:40:05.860Z,120
2017-08-08T09:40:46.387Z,115